createdAt,value
2023-11-13T00:01:56.489Z,100.00
2023-11-13T00:04:23.464Z,100.00
2023-11-13T00:06:50.418Z,100.00
2023-11-13T00:09:17.380Z,100.00
2023-11-13T00:11:45.336Z,100.00
2023-11-13T00:14:12.420Z,100.00
2023-11-13T00:16:39.568Z,100.00
2023-11-13T00:19:06.743Z,100.00
2023-11-13T00:21:35.362Z,100.00
2023-11-13T00:24:02.553Z,100.00
2023-11-13T00:26:29.455Z,100.00
2023-11-13T00:28:56.800Z,100.00
2023-11-13T00:31:24.142Z,100.00
2023-11-13T00:33:51.424Z,100.00
2023-11-13T00:36:18.356Z,100.00
2023-11-13T00:38:45.352Z,100.00
2023-11-13T00:41:13.195Z,100.00
2023-11-13T00:43:40.856Z,100.00
2023-11-13T00:46:08.519Z,100.00
2023-11-13T00:48:39.160Z,100.00
2023-11-13T00:51:06.485Z,100.00
2023-11-13T00:53:38.368Z,100.00
2023-11-13T00:56:08.828Z,100.00
2023-11-13T00:58:37.298Z,100.00
2023-11-13T01:01:08.384Z,100.00
2023-11-13T01:03:35.865Z,100.00
2023-11-13T01:06:04.144Z,100.00
2023-11-13T01:08:31.132Z,100.00
2023-11-13T01:10:58.534Z,100.00
2023-11-13T01:13:25.447Z,100.00
2023-11-13T01:15:55.202Z,100.00
2023-11-13T01:18:22.936Z,100.00
2023-11-13T01:20:50.005Z,100.00
2023-11-13T01:23:16.958Z,100.00
2023-11-13T01:25:46.267Z,100.00
2023-11-13T01:28:14.574Z,100.00
2023-11-13T01:30:41.517Z,100.00
2023-11-13T01:33:08.531Z,100.00
2023-11-13T01:35:35.491Z,100.00
2023-11-13T01:38:02.493Z,100.00
2023-11-13T01:40:29.629Z,100.00
2023-11-13T01:42:56.773Z,100.00
2023-11-13T01:45:23.772Z,100.00
2023-11-13T01:47:51.253Z,100.00
2023-11-13T01:50:18.333Z,100.00
2023-11-13T01:52:45.893Z,100.00
2023-11-13T01:55:13.825Z,100.00
2023-11-13T01:57:42.302Z,100.00
2023-11-13T02:00:09.743Z,100.00
2023-11-13T02:02:36.905Z,100.00
2023-11-13T02:05:04.010Z,100.00
2023-11-13T02:07:31.025Z,100.00
2023-11-13T02:09:57.998Z,100.00
2023-11-13T02:12:27.636Z,100.00
2023-11-13T02:14:54.621Z,100.00
2023-11-13T02:17:21.773Z,100.00
2023-11-13T02:19:48.683Z,100.00
2023-11-13T02:22:16.024Z,100.00
2023-11-13T02:24:43.027Z,100.00
2023-11-13T02:27:10.099Z,100.00
2023-11-13T02:29:37.722Z,100.00
2023-11-13T02:32:05.125Z,100.00
2023-11-13T02:34:31.984Z,100.00
2023-11-13T02:36:59.004Z,100.00
2023-11-13T02:39:25.987Z,100.00
2023-11-13T02:41:53.376Z,100.00
2023-11-13T02:44:20.744Z,100.00
2023-11-13T02:46:47.865Z,100.00
2023-11-13T02:49:14.897Z,100.00
2023-11-13T02:51:43.328Z,100.00
2023-11-13T02:54:10.438Z,100.00
2023-11-13T02:56:37.405Z,100.00
2023-11-13T02:59:05.043Z,100.00
2023-11-13T03:01:32.475Z,100.00
2023-11-13T03:03:59.500Z,100.00
2023-11-13T03:06:26.932Z,100.00
2023-11-13T03:08:54.104Z,100.00
2023-11-13T03:11:21.040Z,100.00
2023-11-13T03:13:48.171Z,100.00
2023-11-13T03:16:15.240Z,100.00
2023-11-13T03:18:42.239Z,100.00
2023-11-13T03:21:09.211Z,100.00
2023-11-13T03:23:36.093Z,100.00
2023-11-13T03:26:05.031Z,100.00
2023-11-13T03:28:32.432Z,100.00
2023-11-13T03:30:59.610Z,100.00
2023-11-13T03:33:26.790Z,100.00
2023-11-13T03:35:53.725Z,100.00
2023-11-13T03:38:20.689Z,100.00
2023-11-13T03:40:47.628Z,100.00
2023-11-13T03:43:14.559Z,100.00
2023-11-13T03:45:41.429Z,100.00
2023-11-13T03:48:08.512Z,100.00
2023-11-13T03:50:35.564Z,100.00
2023-11-13T03:53:02.482Z,100.00
2023-11-13T03:55:29.441Z,100.00
2023-11-13T03:57:56.632Z,100.00
2023-11-13T04:00:23.710Z,100.00
2023-11-13T04:02:50.872Z,100.00
2023-11-13T04:05:18.465Z,100.00
2023-11-13T04:07:45.644Z,100.00
2023-11-13T04:10:15.126Z,100.00
2023-11-13T04:12:48.254Z,100.00
2023-11-13T04:15:15.510Z,100.00
2023-11-13T04:17:42.513Z,100.00
2023-11-13T04:20:14.308Z,100.00
2023-11-13T04:22:42.843Z,100.00
2023-11-13T04:25:10.574Z,100.00
2023-11-13T04:27:37.540Z,100.00
2023-11-13T04:30:05.819Z,100.00
2023-11-13T04:32:32.994Z,100.00
2023-11-13T04:35:00.246Z,100.00
2023-11-13T04:37:27.314Z,100.00
2023-11-13T04:39:54.337Z,100.00
2023-11-13T04:42:21.180Z,100.00
2023-11-13T04:44:48.327Z,100.00
2023-11-13T04:47:15.218Z,100.00
2023-11-13T04:49:42.265Z,100.00
2023-11-13T04:52:09.473Z,100.00
2023-11-13T04:54:38.834Z,100.00
2023-11-13T04:57:05.973Z,100.00
2023-11-13T04:59:33.077Z,100.00
2023-11-13T05:02:00.868Z,100.00
2023-11-13T05:04:28.119Z,100.00
2023-11-13T05:06:56.011Z,100.00
2023-11-13T05:09:23.654Z,100.00
2023-11-13T05:11:50.826Z,100.00
2023-11-13T05:14:17.771Z,100.00
2023-11-13T05:16:45.211Z,100.00
2023-11-13T05:19:12.196Z,100.00
2023-11-13T05:21:39.632Z,100.00
2023-11-13T05:24:07.820Z,100.00
2023-11-13T05:26:34.792Z,100.00
2023-11-13T05:29:01.974Z,100.00
2023-11-13T05:31:29.204Z,100.00
2023-11-13T05:33:56.520Z,100.00
2023-11-13T05:36:23.725Z,100.00
2023-11-13T05:38:50.760Z,100.00
2023-11-13T05:41:17.925Z,100.00
2023-11-13T05:43:45.170Z,100.00
2023-11-13T05:46:12.189Z,100.00
2023-11-13T05:48:39.157Z,100.00
2023-11-13T05:51:07.541Z,100.00
2023-11-13T05:53:34.482Z,100.00
2023-11-13T05:56:01.433Z,100.00
2023-11-13T05:58:28.322Z,100.00
2023-11-13T06:00:58.621Z,100.00
2023-11-13T06:03:25.757Z,100.00
2023-11-13T06:05:52.641Z,100.00
2023-11-13T06:08:19.584Z,100.00
2023-11-13T06:10:46.485Z,100.00
2023-11-13T06:13:14.426Z,100.00
2023-11-13T06:15:42.261Z,100.00
2023-11-13T06:18:09.701Z,100.00
2023-11-13T06:20:37.053Z,100.00
2023-11-13T06:23:04.160Z,100.00
2023-11-13T06:25:31.158Z,100.00
2023-11-13T06:28:01.026Z,100.00
2023-11-13T06:30:28.717Z,100.00
2023-11-13T06:32:55.832Z,100.00
2023-11-13T06:35:22.897Z,100.00
2023-11-13T06:37:49.915Z,100.00
2023-11-13T06:40:18.689Z,100.00
2023-11-13T06:42:49.301Z,100.00
2023-11-13T06:45:16.758Z,100.00
2023-11-13T06:47:44.665Z,100.00
2023-11-13T06:50:12.177Z,100.00
2023-11-13T06:52:39.277Z,100.00
2023-11-13T06:55:06.770Z,100.00
2023-11-13T06:57:34.076Z,100.00
2023-11-13T07:00:01.010Z,100.00
2023-11-13T07:02:29.414Z,100.00
2023-11-13T07:04:56.467Z,100.00
2023-11-13T07:07:23.553Z,100.00
2023-11-13T07:09:50.574Z,100.00
2023-11-13T07:12:18.152Z,100.00
2023-11-13T07:14:46.175Z,100.00
2023-11-13T07:17:13.620Z,100.00
2023-11-13T07:19:41.308Z,100.00
2023-11-13T07:22:08.866Z,100.00
2023-11-13T07:24:38.172Z,100.00
2023-11-13T07:27:08.739Z,100.00
2023-11-13T07:29:36.838Z,100.00
2023-11-13T07:32:03.861Z,100.00
2023-11-13T07:34:30.851Z,100.00
2023-11-13T07:36:57.797Z,100.00
2023-11-13T07:39:29.205Z,100.00
2023-11-13T07:41:58.312Z,100.00
2023-11-13T07:44:25.451Z,100.00
2023-11-13T07:46:53.636Z,100.00
2023-11-13T07:49:20.791Z,100.00
2023-11-13T07:51:48.385Z,100.00
2023-11-13T07:54:15.447Z,100.00
2023-11-13T07:56:42.510Z,100.00
2023-11-13T07:59:12.385Z,100.00
2023-11-13T08:01:39.548Z,100.00
2023-11-13T08:04:10.008Z,100.00
2023-11-13T08:06:37.061Z,100.00
2023-11-13T08:09:10.174Z,100.00
2023-11-13T08:11:37.797Z,100.00
2023-11-13T08:14:05.013Z,100.00
2023-11-13T08:16:35.329Z,100.00
2023-11-13T08:19:02.722Z,100.00
2023-11-13T08:21:32.680Z,100.00
2023-11-13T08:24:03.607Z,100.00
2023-11-13T08:26:34.186Z,100.00
2023-11-13T08:29:01.381Z,100.00
2023-11-13T08:31:31.131Z,100.00
2023-11-13T08:33:58.586Z,100.00
2023-11-13T08:36:29.501Z,100.00
2023-11-13T08:38:56.648Z,100.00
2023-11-13T08:41:24.389Z,100.00
2023-11-13T08:43:51.648Z,100.00
2023-11-13T08:46:18.824Z,100.00
2023-11-13T08:48:46.175Z,100.00
2023-11-13T08:51:13.224Z,100.00
2023-11-13T08:53:44.263Z,100.00
2023-11-13T08:56:16.885Z,100.00
2023-11-13T08:58:44.295Z,100.00
2023-11-13T09:01:12.939Z,100.00
2023-11-13T09:03:41.420Z,100.00
2023-11-13T09:06:10.326Z,100.00
2023-11-13T09:08:38.309Z,100.00
2023-11-13T09:11:06.573Z,100.00
2023-11-13T09:13:33.579Z,100.00
2023-11-13T09:16:04.403Z,100.00
2023-11-13T09:18:32.015Z,100.00
2023-11-13T09:20:59.736Z,100.00
2023-11-13T09:23:28.201Z,100.00
2023-11-13T09:25:55.320Z,100.00
2023-11-13T09:28:22.861Z,100.00
2023-11-13T09:30:49.924Z,100.00
2023-11-13T09:33:19.079Z,100.00
2023-11-13T09:35:47.574Z,100.00
2023-11-13T09:38:14.629Z,100.00
2023-11-13T09:40:42.006Z,100.00
2023-11-13T09:43:20.752Z,100.00
2023-11-13T09:45:53.267Z,100.00
2023-11-13T09:48:29.889Z,100.00
2023-11-13T09:51:01.234Z,100.00
2023-11-13T09:53:30.963Z,100.00
2023-11-13T09:55:58.568Z,100.00
2023-11-13T09:58:25.998Z,100.00
2023-11-13T10:00:53.634Z,100.00
2023-11-13T10:03:20.952Z,100.00
2023-11-13T10:05:48.358Z,100.00
2023-11-13T10:08:16.559Z,100.00
2023-11-13T10:10:44.971Z,100.00
2023-11-13T10:13:13.856Z,100.00
2023-11-13T10:15:44.974Z,100.00
2023-11-13T10:18:14.893Z,99.73
2023-11-13T10:20:47.969Z,96.69
2023-11-13T10:23:16.654Z,96.93
2023-11-13T10:25:48.409Z,97.34
2023-11-13T10:28:16.209Z,96.34
2023-11-13T10:31:03.251Z,97.09
2023-11-13T10:33:31.054Z,96.83
2023-11-13T10:36:06.472Z,95.68
2023-11-13T10:38:48.966Z,95.15
2023-11-13T10:41:26.045Z,94.69
2023-11-13T10:43:53.781Z,92.67
2023-11-13T10:46:30.926Z,89.08
2023-11-13T10:48:59.963Z,88.09
2023-11-13T10:51:28.899Z,86.80
2023-11-13T10:53:57.326Z,82.97
2023-11-13T10:56:26.786Z,81.37
2023-11-13T10:58:55.488Z,81.78
2023-11-13T11:01:30.517Z,77.69
2023-11-13T11:04:05.778Z,76.60
2023-11-13T11:06:39.500Z,77.05
2023-11-13T11:09:09.289Z,73.12
2023-11-13T11:11:41.692Z,72.56
2023-11-13T11:14:18.728Z,73.64
2023-11-13T11:17:02.771Z,74.90
2023-11-13T11:19:47.406Z,72.68
2023-11-13T11:22:31.738Z,71.88
2023-11-13T11:25:19.313Z,71.06
2023-11-13T11:27:47.728Z,70.38
2023-11-13T11:30:26.835Z,71.14
2023-11-13T11:32:58.276Z,69.24
2023-11-13T11:35:31.093Z,69.36
2023-11-13T11:38:16.830Z,69.52
2023-11-13T11:40:46.444Z,69.56
2023-11-13T11:43:19.795Z,70.34
2023-11-13T11:45:52.978Z,68.68
2023-11-13T11:48:21.017Z,68.89
2023-11-13T11:50:53.038Z,68.92
2023-11-13T11:53:21.960Z,70.53
2023-11-13T11:55:48.954Z,69.50
2023-11-13T11:58:17.551Z,69.63
2023-11-13T12:00:46.825Z,70.43
2023-11-13T12:03:13.983Z,71.13
2023-11-13T12:05:42.459Z,69.19
2023-11-13T12:08:13.744Z,70.05
2023-11-13T12:10:43.129Z,70.53
2023-11-13T12:13:10.902Z,68.75
2023-11-13T12:15:38.004Z,69.11
2023-11-13T12:18:05.330Z,70.44
2023-11-13T12:20:32.798Z,69.63
2023-11-13T12:22:59.905Z,69.80
2023-11-13T12:25:27.117Z,69.94
2023-11-13T12:27:56.021Z,69.62
2023-11-13T12:30:24.493Z,70.39
2023-11-13T12:32:55.064Z,71.47
2023-11-13T12:35:22.818Z,71.56
2023-11-13T12:37:51.606Z,70.53
2023-11-13T12:40:20.056Z,70.38
2023-11-13T12:42:47.715Z,69.98
2023-11-13T12:45:17.685Z,70.76
2023-11-13T12:47:47.743Z,72.44
2023-11-13T12:50:22.392Z,72.14
2023-11-13T12:52:54.886Z,71.25
2023-11-13T12:55:29.295Z,69.42
2023-11-13T12:57:56.933Z,69.52
2023-11-13T13:00:24.278Z,69.69
2023-11-13T13:02:55.418Z,71.33
2023-11-13T13:05:30.538Z,71.17
2023-11-13T13:08:03.462Z,69.90
2023-11-13T13:10:35.699Z,69.03
2023-11-13T13:13:06.603Z,69.16
2023-11-13T13:15:34.285Z,68.01
2023-11-13T13:18:01.298Z,68.50
2023-11-13T13:20:32.052Z,70.03
2023-11-13T13:23:00.935Z,71.55
2023-11-13T13:25:33.114Z,69.45
2023-11-13T13:28:00.769Z,70.63
2023-11-13T13:30:34.198Z,71.53
2023-11-13T13:33:03.376Z,69.75
2023-11-13T13:35:30.502Z,71.09
2023-11-13T13:37:58.047Z,71.35
2023-11-13T13:40:27.903Z,71.79
2023-11-13T13:43:00.777Z,71.29
2023-11-13T13:45:29.733Z,71.59
2023-11-13T13:47:58.412Z,72.18
2023-11-13T13:50:26.951Z,72.74
2023-11-13T13:52:57.814Z,74.49
2023-11-13T13:55:29.631Z,77.08
2023-11-13T13:57:58.765Z,79.19
2023-11-13T14:03:03.117Z,81.94
2023-11-13T14:05:30.996Z,81.33
2023-11-13T14:07:58.344Z,81.48
2023-11-13T14:10:25.962Z,79.81
2023-11-13T14:12:53.413Z,78.72
2023-11-13T14:15:21.619Z,74.24
2023-11-13T14:17:53.478Z,73.59
2023-11-13T14:20:25.409Z,74.15
2023-11-13T14:22:56.828Z,72.02
2023-11-13T14:25:26.759Z,73.05
2023-11-13T14:27:55.721Z,72.93
2023-11-13T14:30:26.980Z,73.65
2023-11-13T14:32:55.525Z,73.26
2023-11-13T14:35:24.904Z,72.78
2023-11-13T14:37:52.242Z,71.69
2023-11-13T14:40:20.562Z,69.59
2023-11-13T14:42:48.255Z,71.99
2023-11-13T14:45:18.208Z,70.48
2023-11-13T14:47:47.836Z,71.77
2023-11-13T14:50:22.871Z,70.42
2023-11-13T14:52:53.976Z,70.09
2023-11-13T14:55:25.851Z,69.16
2023-11-13T14:57:53.960Z,69.69
2023-11-13T15:00:23.738Z,70.41
2023-11-13T15:02:53.820Z,70.24
2023-11-13T15:05:21.553Z,68.44
2023-11-13T15:07:51.840Z,69.29
2023-11-13T15:10:19.416Z,68.27
2023-11-13T15:12:47.410Z,69.16
2023-11-13T15:15:16.708Z,69.33
2023-11-13T15:17:47.451Z,71.47
2023-11-13T15:20:19.616Z,70.67
2023-11-13T15:23:08.962Z,70.28
2023-11-13T15:25:39.852Z,70.42
2023-11-13T15:28:06.808Z,69.54
2023-11-13T15:30:33.749Z,69.74
2023-11-13T15:33:05.466Z,70.46
2023-11-13T15:35:32.466Z,69.79
2023-11-13T15:37:59.629Z,70.69
2023-11-13T15:40:26.685Z,70.41
2023-11-13T15:42:53.614Z,69.65
2023-11-13T15:45:20.586Z,69.70
2023-11-13T15:47:48.292Z,70.18
2023-11-13T15:50:18.164Z,71.33
2023-11-13T15:52:45.543Z,72.80
2023-11-13T15:55:13.284Z,72.80
2023-11-13T15:57:41.254Z,72.54
2023-11-13T16:00:13.867Z,72.43
2023-11-13T16:02:42.084Z,73.29
2023-11-13T16:05:10.454Z,71.86
2023-11-13T16:07:38.193Z,72.27
2023-11-13T16:10:05.815Z,72.48
2023-11-13T16:12:32.846Z,72.63
2023-11-13T16:15:00.770Z,72.90
2023-11-13T16:17:31.472Z,72.71
2023-11-13T16:20:05.060Z,72.67
2023-11-13T16:22:33.479Z,73.32
2023-11-13T16:25:02.403Z,72.93
2023-11-13T16:27:32.201Z,72.66
2023-11-13T16:30:03.418Z,72.94
2023-11-13T16:32:30.951Z,72.80
2023-11-13T16:34:58.100Z,72.67
2023-11-13T16:37:25.092Z,72.40
2023-11-13T16:39:53.956Z,74.81
2023-11-13T16:42:20.880Z,72.94
2023-11-13T16:44:48.073Z,74.23
2023-11-13T16:47:15.048Z,73.44
2023-11-13T16:49:44.421Z,74.84
2023-11-13T16:52:12.965Z,74.35
2023-11-13T16:54:40.000Z,73.81
2023-11-13T16:57:06.954Z,73.25
2023-11-13T16:59:33.892Z,73.88
2023-11-13T17:02:00.889Z,73.56
2023-11-13T17:04:27.898Z,73.64
2023-11-13T17:06:55.005Z,75.21
2023-11-13T17:09:22.075Z,75.04
2023-11-13T17:11:48.973Z,72.90
2023-11-13T17:14:15.874Z,74.90
2023-11-13T17:16:42.928Z,75.20
2023-11-13T17:19:10.324Z,74.46
2023-11-13T17:21:39.216Z,74.31
2023-11-13T17:24:07.307Z,77.11
2023-11-13T17:26:34.346Z,77.44
2023-11-13T17:29:03.065Z,79.85
2023-11-13T17:31:31.689Z,78.39
2023-11-13T17:33:58.807Z,76.15
2023-11-13T17:36:25.871Z,76.33
2023-11-13T17:39:18.530Z,76.75
2023-11-13T17:41:46.762Z,76.22
2023-11-13T17:44:13.780Z,76.17
2023-11-13T17:46:42.962Z,76.29
2023-11-13T17:49:10.105Z,75.35
2023-11-13T17:51:37.113Z,75.90
2023-11-13T17:54:04.915Z,76.53
2023-11-13T17:56:31.794Z,77.33
2023-11-13T17:58:58.796Z,77.75
2023-11-13T18:01:26.319Z,76.57
2023-11-13T18:03:55.725Z,76.78
2023-11-13T18:06:25.398Z,75.77
2023-11-13T18:08:52.235Z,76.36
2023-11-13T18:11:19.239Z,76.31
2023-11-13T18:13:46.270Z,76.81
2023-11-13T18:16:15.713Z,76.27
2023-11-13T18:18:43.441Z,77.49
2023-11-13T18:21:10.466Z,76.67
2023-11-13T18:23:37.502Z,76.92
2023-11-13T18:26:04.524Z,76.77
2023-11-13T18:28:31.539Z,76.46
2023-11-13T18:30:59.720Z,76.53
2023-11-13T18:33:30.723Z,76.76
2023-11-13T18:35:59.091Z,77.59
2023-11-13T18:38:27.070Z,77.00
2023-11-13T18:40:54.152Z,77.25
2023-11-13T18:43:24.287Z,77.95
2023-11-13T18:45:53.550Z,77.86
2023-11-13T18:48:21.293Z,77.68
2023-11-13T18:50:48.837Z,77.46
2023-11-13T18:53:16.843Z,77.85
2023-11-13T18:55:46.100Z,77.59
2023-11-13T18:58:13.097Z,78.07
2023-11-13T19:00:40.051Z,77.31
2023-11-13T19:03:07.291Z,77.71
2023-11-13T19:05:34.712Z,77.33
2023-11-13T19:08:01.743Z,77.78
2023-11-13T19:10:29.325Z,78.38
2023-11-13T19:12:56.422Z,77.05
2023-11-13T19:15:24.220Z,77.84
2023-11-13T19:17:51.317Z,77.55
2023-11-13T19:20:21.371Z,76.83
2023-11-13T19:22:48.363Z,77.44
2023-11-13T19:25:15.549Z,79.17
2023-11-13T19:27:43.701Z,78.85
2023-11-13T19:30:11.282Z,78.78
2023-11-13T19:32:40.025Z,78.82
2023-11-13T19:35:08.532Z,78.70
2023-11-13T19:37:35.773Z,79.99
2023-11-13T19:40:09.377Z,78.74
2023-11-13T19:42:39.599Z,79.52
2023-11-13T19:45:13.453Z,79.06
2023-11-13T19:47:41.630Z,80.15
2023-11-13T19:50:10.318Z,81.17
2023-11-13T19:52:45.303Z,81.01
2023-11-13T19:55:14.763Z,81.10
2023-11-13T19:57:42.922Z,80.00
2023-11-13T20:00:18.279Z,80.35
2023-11-13T20:02:45.971Z,80.59
2023-11-13T20:05:13.149Z,80.28
2023-11-13T20:07:40.216Z,82.10
2023-11-13T20:10:12.642Z,82.79
2023-11-13T20:12:39.785Z,82.12
2023-11-13T20:15:08.669Z,82.01
2023-11-13T20:17:37.025Z,81.84
2023-11-13T20:20:05.239Z,81.98
2023-11-13T20:22:32.258Z,82.32
2023-11-13T20:24:59.210Z,82.60
2023-11-13T20:27:26.271Z,83.29
2023-11-13T20:30:03.143Z,82.96
2023-11-13T20:32:32.528Z,82.95
2023-11-13T20:35:00.891Z,83.61
2023-11-13T20:37:28.564Z,83.40
2023-11-13T20:40:02.101Z,84.43
2023-11-13T20:42:29.547Z,83.86
2023-11-13T20:44:56.730Z,84.23
2023-11-13T20:47:23.986Z,84.20
2023-11-13T20:50:01.867Z,84.78
2023-11-13T20:52:28.952Z,83.62
2023-11-13T20:54:56.447Z,84.07
2023-11-13T20:57:24.320Z,84.00
2023-11-13T20:59:51.591Z,84.10
2023-11-13T21:02:18.616Z,84.45
2023-11-13T21:04:45.659Z,83.62
2023-11-13T21:07:13.050Z,84.29
2023-11-13T21:09:40.164Z,85.18
2023-11-13T21:12:07.383Z,84.69
2023-11-13T21:14:34.964Z,84.39
2023-11-13T21:17:02.174Z,83.69
2023-11-13T21:19:29.316Z,83.86
2023-11-13T21:21:56.378Z,84.92
2023-11-13T21:24:23.497Z,84.73
2023-11-13T21:26:51.766Z,84.74
2023-11-13T21:29:20.088Z,84.75
2023-11-13T21:31:47.113Z,84.17
2023-11-13T21:34:14.235Z,84.91
2023-11-13T21:36:41.280Z,84.24
2023-11-13T21:39:09.529Z,85.31
2023-11-13T21:41:36.524Z,84.14
2023-11-13T21:44:03.694Z,84.11
2023-11-13T21:46:30.775Z,85.00
2023-11-13T21:48:57.857Z,84.89
2023-11-13T21:51:24.812Z,84.58
2023-11-13T21:53:53.301Z,85.37
2023-11-13T21:56:20.212Z,85.62
2023-11-13T21:58:47.536Z,85.10
2023-11-13T22:01:15.204Z,84.92
2023-11-13T22:03:42.388Z,84.77
2023-11-13T22:06:11.717Z,85.50
2023-11-13T22:08:38.872Z,85.46
2023-11-13T22:11:06.266Z,85.78
2023-11-13T22:13:33.712Z,85.52
2023-11-13T22:16:00.891Z,85.53
2023-11-13T22:18:28.001Z,85.66
2023-11-13T22:20:55.401Z,85.92
2023-11-13T22:23:22.346Z,85.96
2023-11-13T22:25:49.344Z,85.71
2023-11-13T22:28:16.279Z,86.53
2023-11-13T22:30:43.896Z,86.25
2023-11-13T22:33:10.963Z,85.99
2023-11-13T22:35:37.889Z,85.95
2023-11-13T22:38:05.792Z,86.12
2023-11-13T22:40:33.216Z,86.76
2023-11-13T22:43:01.145Z,86.12
2023-11-13T22:45:29.945Z,85.63
2023-11-13T22:47:57.014Z,85.37
2023-11-13T22:50:27.811Z,84.65
2023-11-13T22:52:55.050Z,85.35
2023-11-13T22:55:22.128Z,85.46
2023-11-13T22:57:49.417Z,86.03
2023-11-13T23:00:26.943Z,85.92
2023-11-13T23:02:57.372Z,85.97
2023-11-13T23:05:24.710Z,85.05
2023-11-13T23:07:51.621Z,85.21
2023-11-13T23:10:18.710Z,85.40
2023-11-13T23:12:45.832Z,85.87
2023-11-13T23:15:13.066Z,86.05
2023-11-13T23:17:41.826Z,85.60
2023-11-13T23:20:13.153Z,85.95
2023-11-13T23:22:40.509Z,86.07
2023-11-13T23:25:09.775Z,85.74
2023-11-13T23:27:37.066Z,85.77
2023-11-13T23:30:11.983Z,86.40
2023-11-13T23:32:39.594Z,86.08
2023-11-13T23:35:09.550Z,84.99
2023-11-13T23:37:37.791Z,85.15
2023-11-13T23:40:07.558Z,84.98
2023-11-13T23:42:34.485Z,84.77
2023-11-13T23:45:01.438Z,85.94
2023-11-13T23:47:34.880Z,85.73
2023-11-13T23:50:03.299Z,85.20
2023-11-13T23:52:31.203Z,85.48
2023-11-13T23:54:58.183Z,85.13
2023-11-13T23:57:25.722Z,84.81
2023-11-13T23:59:52.657Z,86.54
